sensor_id;sensor_type;location;lat;lon;timestamp;pressure;altitude;pressure_sealevel;temperature;humidity
70033;BME280;57374;56.164;15.594;2023-07-24T00:01:00;101107.85;;;28.47;23.71
70033;BME280;57374;56.164;15.594;2023-07-24T00:03:25;101107.98;;;28.68;22.54
70033;BME280;57374;56.164;15.594;2023-07-24T00:05:50;101108.92;;;28.93;22.67
70033;BME280;57374;56.164;15.594;2023-07-24T00:08:15;101108.70;;;28.84;22.22
70033;BME280;57374;56.164;15.594;2023-07-24T00:10:40;101109.61;;;29.02;22.26
70033;BME280;57374;56.164;15.594;2023-07-24T00:13:05;101101.90;;;29.26;21.91
70033;BME280;57374;56.164;15.594;2023-07-24T00:15:30;101099.23;;;29.55;21.37
70033;BME280;57374;56.164;15.594;2023-07-24T00:17:55;101099.53;;;29.18;21.21
70033;BME280;57374;56.164;15.594;2023-07-24T00:20:20;101103.90;;;28.95;21.38
70033;BME280;57374;56.164;15.594;2023-07-24T00:22:45;101104.04;;;28.78;21.50
70033;BME280;57374;56.164;15.594;2023-07-24T00:25:10;101105.19;;;28.68;21.60
70033;BME280;57374;56.164;15.594;2023-07-24T00:27:36;101102.75;;;28.48;21.83
70033;BME280;57374;56.164;15.594;2023-07-24T00:30:01;101099.39;;;28.45;21.86
70033;BME280;57374;56.164;15.594;2023-07-24T00:32:26;101094.22;;;28.32;21.96
70033;BME280;57374;56.164;15.594;2023-07-24T00:34:51;101092.87;;;28.32;21.92
70033;BME280;57374;56.164;15.594;2023-07-24T00:37:16;101090.12;;;28.30;21.91
70033;BME280;57374;56.164;15.594;2023-07-24T00:39:41;101084.85;;;28.31;22.10
70033;BME280;57374;56.164;15.594;2023-07-24T00:42:07;101082.46;;;28.40;22.41
70033;BME280;57374;56.164;15.594;2023-07-24T00:44:31;101076.88;;;28.50;22.45
70033;BME280;57374;56.164;15.594;2023-07-24T00:46:57;101078.00;;;28.55;22.41
70033;BME280;57374;56.164;15.594;2023-07-24T00:49:22;101078.88;;;28.44;22.33
70033;BME280;57374;56.164;15.594;2023-07-24T00:51:46;101073.16;;;28.36;22.30
70033;BME280;57374;56.164;15.594;2023-07-24T00:54:12;101071.18;;;28.26;22.36
70033;BME280;57374;56.164;15.594;2023-07-24T00:56:37;101069.16;;;28.31;22.23
70033;BME280;57374;56.164;15.594;2023-07-24T00:59:02;101069.23;;;28.28;22.17
70033;BME280;57374;56.164;15.594;2023-07-24T01:01:27;101070.29;;;28.27;22.11
70033;BME280;57374;56.164;15.594;2023-07-24T01:03:52;101068.51;;;28.06;22.26
70033;BME280;57374;56.164;15.594;2023-07-24T01:06:17;101072.25;;;28.04;22.19
70033;BME280;57374;56.164;15.594;2023-07-24T01:08:42;101069.63;;;28.05;22.13
70033;BME280;57374;56.164;15.594;2023-07-24T01:11:11;101066.60;;;28.01;22.14
70033;BME280;57374;56.164;15.594;2023-07-24T01:13:36;101065.20;;;28.13;21.93
70033;BME280;57374;56.164;15.594;2023-07-24T01:16:03;101066.65;;;28.11;21.95
70033;BME280;57374;56.164;15.594;2023-07-24T01:18:24;101067.99;;;27.98;22.01
70033;BME280;57374;56.164;15.594;2023-07-24T01:20:50;101068.74;;;27.96;22.11
70033;BME280;57374;56.164;15.594;2023-07-24T01:23:22;101068.99;;;28.18;22.28
70033;BME280;57374;56.164;15.594;2023-07-24T01:25:47;101069.58;;;28.20;22.70
70033;BME280;57374;56.164;15.594;2023-07-24T01:28:07;101072.29;;;28.22;23.05
70033;BME280;57374;56.164;15.594;2023-07-24T01:30:28;101075.18;;;28.15;23.57
70033;BME280;57374;56.164;15.594;2023-07-24T01:32:53;101073.33;;;28.31;23.68
70033;BME280;57374;56.164;15.594;2023-07-24T01:35:18;101083.44;;;28.26;23.99
70033;BME280;57374;56.164;15.594;2023-07-24T01:37:44;101082.28;;;28.30;24.09
70033;BME280;57374;56.164;15.594;2023-07-24T01:40:09;101085.49;;;28.30;24.20
70033;BME280;57374;56.164;15.594;2023-07-24T01:42:34;101088.65;;;28.26;24.31
70033;BME280;57374;56.164;15.594;2023-07-24T01:44:58;101078.93;;;28.18;24.25
70033;BME280;57374;56.164;15.594;2023-07-24T01:47:24;101086.04;;;28.34;24.18
70033;BME280;57374;56.164;15.594;2023-07-24T01:49:49;101079.66;;;28.21;24.26
70033;BME280;57374;56.164;15.594;2023-07-24T01:52:14;101080.32;;;28.20;24.17
70033;BME280;57374;56.164;15.594;2023-07-24T01:54:39;101078.10;;;28.22;23.93
70033;BME280;57374;56.164;15.594;2023-07-24T01:57:05;101075.61;;;28.11;23.86
70033;BME280;57374;56.164;15.594;2023-07-24T01:59:29;101081.88;;;28.05;23.87
70033;BME280;57374;56.164;15.594;2023-07-24T02:01:54;101079.43;;;28.19;23.62
70033;BME280;57374;56.164;15.594;2023-07-24T02:04:19;101075.56;;;28.14;23.59
70033;BME280;57374;56.164;15.594;2023-07-24T02:06:44;101077.17;;;28.10;23.63
70033;BME280;57374;56.164;15.594;2023-07-24T02:09:10;101076.06;;;28.03;23.61
70033;BME280;57374;56.164;15.594;2023-07-24T02:11:35;101072.15;;;28.07;23.45
70033;BME280;57374;56.164;15.594;2023-07-24T02:14:00;101070.71;;;27.99;23.59
70033;BME280;57374;56.164;15.594;2023-07-24T02:16:25;101072.59;;;28.11;23.38
70033;BME280;57374;56.164;15.594;2023-07-24T02:18:50;101069.77;;;27.91;23.56
70033;BME280;57374;56.164;15.594;2023-07-24T02:21:15;101068.29;;;28.00;24.00
70033;BME280;57374;56.164;15.594;2023-07-24T02:23:40;101073.02;;;28.10;24.58
70033;BME280;57374;56.164;15.594;2023-07-24T02:26:05;101074.15;;;28.23;24.91
70033;BME280;57374;56.164;15.594;2023-07-24T02:28:30;101072.05;;;28.23;25.40
70033;BME280;57374;56.164;15.594;2023-07-24T02:30:55;101069.73;;;28.24;25.75
70033;BME280;57374;56.164;15.594;2023-07-24T02:33:21;101067.29;;;28.25;26.14
70033;BME280;57374;56.164;15.594;2023-07-24T02:35:46;101072.72;;;28.30;26.44
70033;BME280;57374;56.164;15.594;2023-07-24T02:38:11;101070.30;;;28.54;26.39
70033;BME280;57374;56.164;15.594;2023-07-24T02:40:36;101070.20;;;28.50;26.73
70033;BME280;57374;56.164;15.594;2023-07-24T02:43:01;101070.41;;;28.47;26.81
70033;BME280;57374;56.164;15.594;2023-07-24T02:45:26;101068.22;;;28.33;26.62
70033;BME280;57374;56.164;15.594;2023-07-24T02:47:51;101064.38;;;28.24;26.44
70033;BME280;57374;56.164;15.594;2023-07-24T02:50:16;101064.74;;;28.33;26.03
70033;BME280;57374;56.164;15.594;2023-07-24T02:52:41;101061.31;;;28.18;25.85
70033;BME280;57374;56.164;15.594;2023-07-24T02:55:07;101058.60;;;28.20;25.61
70033;BME280;57374;56.164;15.594;2023-07-24T02:57:31;101055.95;;;28.19;25.58
70033;BME280;57374;56.164;15.594;2023-07-24T02:59:56;101058.31;;;28.07;25.48
70033;BME280;57374;56.164;15.594;2023-07-24T03:02:22;101063.77;;;28.17;25.43
70033;BME280;57374;56.164;15.594;2023-07-24T03:04:47;101066.27;;;28.23;25.89
70033;BME280;57374;56.164;15.594;2023-07-24T03:07:12;101066.53;;;28.28;26.34
70033;BME280;57374;56.164;15.594;2023-07-24T03:09:37;101067.74;;;28.38;26.38
70033;BME280;57374;56.164;15.594;2023-07-24T03:12:02;101066.73;;;28.35;26.11
70033;BME280;57374;56.164;15.594;2023-07-24T03:14:27;101066.95;;;28.18;25.84
70033;BME280;57374;56.164;15.594;2023-07-24T03:16:52;101066.70;;;28.13;25.58
70033;BME280;57374;56.164;15.594;2023-07-24T03:19:17;101064.59;;;28.10;25.49
70033;BME280;57374;56.164;15.594;2023-07-24T03:21:42;101061.02;;;28.17;25.09
70033;BME280;57374;56.164;15.594;2023-07-24T03:24:07;101064.94;;;28.10;24.98
70033;BME280;57374;56.164;15.594;2023-07-24T03:26:33;101061.09;;;28.07;24.81
70033;BME280;57374;56.164;15.594;2023-07-24T03:28:58;101058.47;;;28.11;24.75
70033;BME280;57374;56.164;15.594;2023-07-24T03:31:23;101059.46;;;28.24;25.19
70033;BME280;57374;56.164;15.594;2023-07-24T03:33:48;101060.16;;;28.32;25.68
70033;BME280;57374;56.164;15.594;2023-07-24T03:36:13;101059.26;;;28.26;26.37
70033;BME280;57374;56.164;15.594;2023-07-24T03:38:38;101059.35;;;28.17;27.06
70033;BME280;57374;56.164;15.594;2023-07-24T03:41:03;101058.96;;;28.41;27.07
70033;BME280;57374;56.164;15.594;2023-07-24T03:43:28;101061.77;;;28.50;27.19
70033;BME280;57374;56.164;15.594;2023-07-24T03:45:53;101060.45;;;28.44;27.47
70033;BME280;57374;56.164;15.594;2023-07-24T03:48:18;101060.26;;;28.32;27.88
70033;BME280;57374;56.164;15.594;2023-07-24T03:50:43;101063.79;;;28.47;27.84
70033;BME280;57374;56.164;15.594;2023-07-24T03:53:08;101067.77;;;28.52;27.88
70033;BME280;57374;56.164;15.594;2023-07-24T03:55:34;101070.08;;;28.49;28.09
70033;BME280;57374;56.164;15.594;2023-07-24T03:57:59;101070.87;;;28.52;28.19
70033;BME280;57374;56.164;15.594;2023-07-24T04:00:24;101066.82;;;28.46;28.44
70033;BME280;57374;56.164;15.594;2023-07-24T04:02:49;101070.90;;;28.47;28.54
70033;BME280;57374;56.164;15.594;2023-07-24T04:05:14;101073.15;;;28.51;28.64
70033;BME280;57374;56.164;15.594;2023-07-24T04:07:39;101072.21;;;28.65;28.51
70033;BME280;57374;56.164;15.594;2023-07-24T04:10:06;101071.87;;;28.58;28.75
70033;BME280;57374;56.164;15.594;2023-07-24T04:12:29;101066.78;;;28.55;28.92
70033;BME280;57374;56.164;15.594;2023-07-24T04:14:54;101068.37;;;28.56;28.99
70033;BME280;57374;56.164;15.594;2023-07-24T04:17:19;101072.29;;;28.34;29.09
70033;BME280;57374;56.164;15.594;2023-07-24T04:19:44;101075.56;;;28.36;28.62
70033;BME280;57374;56.164;15.594;2023-07-24T04:22:10;101073.18;;;28.41;28.22
70033;BME280;57374;56.164;15.594;2023-07-24T04:24:35;101074.52;;;28.36;27.82
70033;BME280;57374;56.164;15.594;2023-07-24T04:27:00;101074.14;;;28.40;27.28
70033;BME280;57374;56.164;15.594;2023-07-24T04:29:25;101075.70;;;28.65;26.92
70033;BME280;57374;56.164;15.594;2023-07-24T04:31:50;101074.28;;;29.01;26.47
70033;BME280;57374;56.164;15.594;2023-07-24T04:34:15;101073.87;;;29.29;27.31
70033;BME280;57374;56.164;15.594;2023-07-24T04:36:40;101081.12;;;29.50;27.05
70033;BME280;57374;56.164;15.594;2023-07-24T04:39:05;101081.61;;;29.68;26.69
70033;BME280;57374;56.164;15.594;2023-07-24T04:41:30;101080.53;;;29.81;27.36
70033;BME280;57374;56.164;15.594;2023-07-24T04:43:55;101075.78;;;29.91;27.47
70033;BME280;57374;56.164;15.594;2023-07-24T04:46:21;101071.84;;;30.02;27.93
70033;BME280;57374;56.164;15.594;2023-07-24T04:48:46;101069.99;;;30.06;28.60
70033;BME280;57374;56.164;15.594;2023-07-24T04:51:11;101069.04;;;30.15;28.75
70033;BME280;57374;56.164;15.594;2023-07-24T04:53:36;101069.57;;;30.20;29.07
70033;BME280;57374;56.164;15.594;2023-07-24T04:56:01;101067.07;;;30.26;29.64
70033;BME280;57374;56.164;15.594;2023-07-24T04:58:26;101063.67;;;30.31;30.02
70033;BME280;57374;56.164;15.594;2023-07-24T05:00:51;101060.37;;;30.35;30.39
70033;BME280;57374;56.164;15.594;2023-07-24T05:03:16;101058.12;;;30.37;31.02
70033;BME280;57374;56.164;15.594;2023-07-24T05:05:41;101058.29;;;30.42;31.16
70033;BME280;57374;56.164;15.594;2023-07-24T05:08:06;101058.71;;;30.47;31.62
70033;BME280;57374;56.164;15.594;2023-07-24T05:10:35;101057.03;;;30.49;31.50
70033;BME280;57374;56.164;15.594;2023-07-24T05:12:56;101059.43;;;30.52;31.76
70033;BME280;57374;56.164;15.594;2023-07-24T05:15:22;101065.82;;;30.59;31.80
70033;BME280;57374;56.164;15.594;2023-07-24T05:17:47;101067.27;;;30.58;32.13
70033;BME280;57374;56.164;15.594;2023-07-24T05:20:12;101065.82;;;30.58;31.88
70033;BME280;57374;56.164;15.594;2023-07-24T05:22:37;101065.40;;;30.65;33.22
70033;BME280;57374;56.164;15.594;2023-07-24T05:25:02;101070.30;;;30.64;33.84
70033;BME280;57374;56.164;15.594;2023-07-24T05:27:27;101073.46;;;30.69;32.92
70033;BME280;57374;56.164;15.594;2023-07-24T05:29:52;101074.73;;;30.73;32.93
70033;BME280;57374;56.164;15.594;2023-07-24T05:32:17;101075.26;;;30.76;34.38
70033;BME280;57374;56.164;15.594;2023-07-24T05:34:43;101082.04;;;30.79;33.39
70033;BME280;57374;56.164;15.594;2023-07-24T05:37:07;101081.67;;;30.83;33.00
70033;BME280;57374;56.164;15.594;2023-07-24T05:39:32;101082.65;;;30.82;34.53
70033;BME280;57374;56.164;15.594;2023-07-24T05:41:57;101084.50;;;30.86;34.22
70033;BME280;57374;56.164;15.594;2023-07-24T05:44:23;101085.93;;;30.88;34.56
70033;BME280;57374;56.164;15.594;2023-07-24T05:46:48;101086.95;;;30.93;34.63
70033;BME280;57374;56.164;15.594;2023-07-24T05:49:13;101087.88;;;30.91;34.93
70033;BME280;57374;56.164;15.594;2023-07-24T05:51:38;101088.61;;;30.95;34.94
70033;BME280;57374;56.164;15.594;2023-07-24T05:54:03;101086.07;;;30.98;35.58
70033;BME280;57374;56.164;15.594;2023-07-24T05:56:28;101087.01;;;31.02;36.30
70033;BME280;57374;56.164;15.594;2023-07-24T05:58:53;101085.60;;;31.01;35.97
70033;BME280;57374;56.164;15.594;2023-07-24T06:01:18;101086.60;;;31.02;34.97
70033;BME280;57374;56.164;15.594;2023-07-24T06:03:43;101091.53;;;31.05;34.71
70033;BME280;57374;56.164;15.594;2023-07-24T06:06:08;101090.19;;;31.06;35.47
70033;BME280;57374;56.164;15.594;2023-07-24T06:08:34;101087.09;;;31.07;35.86
70033;BME280;57374;56.164;15.594;2023-07-24T06:10:59;101083.34;;;31.13;35.14
70033;BME280;57374;56.164;15.594;2023-07-24T06:13:24;101082.66;;;31.14;35.11
70033;BME280;57374;56.164;15.594;2023-07-24T06:15:51;101081.02;;;31.16;35.57
70033;BME280;57374;56.164;15.594;2023-07-24T06:18:14;101081.12;;;31.15;34.83
70033;BME280;57374;56.164;15.594;2023-07-24T06:20:39;101078.73;;;31.41;35.05
70033;BME280;57374;56.164;15.594;2023-07-24T06:23:04;101075.72;;;31.55;35.81
70033;BME280;57374;56.164;15.594;2023-07-24T06:25:30;101074.59;;;31.77;35.70
70033;BME280;57374;56.164;15.594;2023-07-24T06:27:55;101073.50;;;31.83;34.59
70033;BME280;57374;56.164;15.594;2023-07-24T06:30:20;101072.20;;;31.99;34.62
70033;BME280;57374;56.164;15.594;2023-07-24T07:12:57;101078.18;;;30.65;39.84
70033;BME280;57374;56.164;15.594;2023-07-24T07:15:22;101082.41;;;30.99;39.37
70033;BME280;57374;56.164;15.594;2023-07-24T07:17:48;101086.84;;;31.37;38.17
70033;BME280;57374;56.164;15.594;2023-07-24T07:20:12;101084.46;;;31.67;37.78
70033;BME280;57374;56.164;15.594;2023-07-24T07:22:38;101089.10;;;31.73;37.92
70033;BME280;57374;56.164;15.594;2023-07-24T07:25:03;101086.50;;;31.70;38.40
70033;BME280;57374;56.164;15.594;2023-07-24T07:27:28;101088.71;;;31.88;38.83
70033;BME280;57374;56.164;15.594;2023-07-24T07:29:53;101092.50;;;32.05;37.48
70033;BME280;57374;56.164;15.594;2023-07-24T07:32:18;101090.50;;;32.14;37.36
70033;BME280;57374;56.164;15.594;2023-07-24T07:34:43;101088.17;;;32.13;37.45
70033;BME280;57374;56.164;15.594;2023-07-24T07:37:08;101088.79;;;32.12;38.21
70033;BME280;57374;56.164;15.594;2023-07-24T07:39:34;101092.53;;;32.38;38.41
70033;BME280;57374;56.164;15.594;2023-07-24T07:41:59;101095.04;;;32.32;37.47
70033;BME280;57374;56.164;15.594;2023-07-24T07:44:24;101095.08;;;32.47;37.23
70033;BME280;57374;56.164;15.594;2023-07-24T07:46:49;101095.64;;;32.29;36.65
70033;BME280;57374;56.164;15.594;2023-07-24T07:49:14;101095.31;;;32.26;36.98
70033;BME280;57374;56.164;15.594;2023-07-24T07:51:39;101093.26;;;32.21;37.15
70033;BME280;57374;56.164;15.594;2023-07-24T07:54:04;101093.45;;;32.14;37.06
70033;BME280;57374;56.164;15.594;2023-07-24T07:56:29;101091.58;;;32.04;37.53
70033;BME280;57374;56.164;15.594;2023-07-24T07:58:54;101088.52;;;32.11;37.80
70033;BME280;57374;56.164;15.594;2023-07-24T08:01:19;101097.73;;;32.28;37.37
70033;BME280;57374;56.164;15.594;2023-07-24T08:03:44;101099.87;;;32.31;37.05
70033;BME280;57374;56.164;15.594;2023-07-24T08:06:09;101092.88;;;32.33;37.74
70033;BME280;57374;56.164;15.594;2023-07-24T08:08:34;101095.04;;;32.32;36.58
70033;BME280;57374;56.164;15.594;2023-07-24T08:11:04;101095.18;;;32.34;36.78
70033;BME280;57374;56.164;15.594;2023-07-24T08:13:24;101085.87;;;32.32;37.14
70033;BME280;57374;56.164;15.594;2023-07-24T08:15:49;101083.06;;;32.32;37.22
70033;BME280;57374;56.164;15.594;2023-07-24T08:18:14;101082.06;;;31.79;38.25
70033;BME280;57374;56.164;15.594;2023-07-24T08:20:39;101083.80;;;31.37;37.61
70033;BME280;57374;56.164;15.594;2023-07-24T08:23:05;101084.98;;;31.15;36.19
70033;BME280;57374;56.164;15.594;2023-07-24T08:25:30;101075.86;;;30.86;35.13
70033;BME280;57374;56.164;15.594;2023-07-24T08:27:55;101072.13;;;30.91;34.84
70033;BME280;57374;56.164;15.594;2023-07-24T08:30:20;101070.15;;;31.02;33.42
70033;BME280;57374;56.164;15.594;2023-07-24T08:32:45;101071.98;;;31.15;32.73
70033;BME280;57374;56.164;15.594;2023-07-24T08:35:10;101069.68;;;31.14;31.76
70033;BME280;57374;56.164;15.594;2023-07-24T08:37:35;101069.87;;;31.27;30.69
70033;BME280;57374;56.164;15.594;2023-07-24T08:40:00;101067.15;;;30.75;30.65
70033;BME280;57374;56.164;15.594;2023-07-24T08:42:26;101067.47;;;29.92;31.93
70033;BME280;57374;56.164;15.594;2023-07-24T08:44:52;101069.64;;;29.42;31.84
70033;BME280;57374;56.164;15.594;2023-07-24T08:47:16;101067.74;;;29.29;31.47
70033;BME280;57374;56.164;15.594;2023-07-24T08:49:42;101070.40;;;29.06;30.93
70033;BME280;57374;56.164;15.594;2023-07-24T08:52:07;101071.95;;;29.62;29.73
70033;BME280;57374;56.164;15.594;2023-07-24T08:54:32;101067.93;;;29.37;30.19
70033;BME280;57374;56.164;15.594;2023-07-24T08:56:56;101065.34;;;29.46;30.00
70033;BME280;57374;56.164;15.594;2023-07-24T08:59:21;101064.55;;;29.32;29.75
70033;BME280;57374;56.164;15.594;2023-07-24T09:01:47;101061.57;;;29.23;28.10
70033;BME280;57374;56.164;15.594;2023-07-24T09:04:12;101065.61;;;28.87;28.91
70033;BME280;57374;56.164;15.594;2023-07-24T09:06:37;101064.19;;;29.21;28.66
70033;BME280;57374;56.164;15.594;2023-07-24T09:09:02;101064.14;;;28.93;27.34
70033;BME280;57374;56.164;15.594;2023-07-24T09:11:27;101066.18;;;28.96;27.59
70033;BME280;57374;56.164;15.594;2023-07-24T09:13:52;101074.08;;;28.87;27.69
70033;BME280;57374;56.164;15.594;2023-07-24T09:16:23;101066.84;;;28.99;27.80
70033;BME280;57374;56.164;15.594;2023-07-24T09:18:43;101064.67;;;29.43;26.51
70033;BME280;57374;56.164;15.594;2023-07-24T09:21:07;101065.07;;;29.32;27.34
70033;BME280;57374;56.164;15.594;2023-07-24T09:23:33;101064.73;;;28.92;26.00
70033;BME280;57374;56.164;15.594;2023-07-24T09:25:58;101072.40;;;28.84;26.64
70033;BME280;57374;56.164;15.594;2023-07-24T09:28:23;101072.41;;;28.51;26.70
70033;BME280;57374;56.164;15.594;2023-07-24T09:30:52;101068.22;;;29.06;26.11
70033;BME280;57374;56.164;15.594;2023-07-24T09:33:13;101066.02;;;28.98;25.92
70033;BME280;57374;56.164;15.594;2023-07-24T09:35:38;101064.90;;;29.05;25.62
70033;BME280;57374;56.164;15.594;2023-07-24T09:38:05;101070.04;;;28.82;25.52
70033;BME280;57374;56.164;15.594;2023-07-24T09:40:36;101067.77;;;28.71;25.50
70033;BME280;57374;56.164;15.594;2023-07-24T09:46:05;101067.96;;;28.89;25.87
70033;BME280;57374;56.164;15.594;2023-07-24T09:48:30;101064.98;;;29.06;24.72
70033;BME280;57374;56.164;15.594;2023-07-24T09:50:56;101066.48;;;28.31;25.85
70033;BME280;57374;56.164;15.594;2023-07-24T09:53:24;101063.57;;;28.61;25.17
70033;BME280;57374;56.164;15.594;2023-07-24T09:55:50;101064.31;;;28.76;25.13
70033;BME280;57374;56.164;15.594;2023-07-24T09:58:11;101054.27;;;29.06;24.51
70033;BME280;57374;56.164;15.594;2023-07-24T10:00:35;101054.15;;;29.81;23.99
70033;BME280;57374;56.164;15.594;2023-07-24T10:03:00;101053.88;;;30.03;24.07
70033;BME280;57374;56.164;15.594;2023-07-24T10:05:25;101051.60;;;30.66;24.80
70033;BME280;57374;56.164;15.594;2023-07-24T10:07:51;101048.82;;;30.71;24.63
70033;BME280;57374;56.164;15.594;2023-07-24T10:10:15;101052.38;;;31.11;25.32
70033;BME280;57374;56.164;15.594;2023-07-24T10:12:40;101046.67;;;31.19;24.79
70033;BME280;57374;56.164;15.594;2023-07-24T10:15:07;101040.86;;;31.14;25.01
70033;BME280;57374;56.164;15.594;2023-07-24T10:17:36;101042.20;;;31.10;25.94
70033;BME280;57374;56.164;15.594;2023-07-24T10:20:01;101040.58;;;31.35;25.20
70033;BME280;57374;56.164;15.594;2023-07-24T10:22:21;101035.89;;;31.28;26.06
70033;BME280;57374;56.164;15.594;2023-07-24T10:24:46;101034.96;;;31.31;26.31
70033;BME280;57374;56.164;15.594;2023-07-24T10:27:11;101034.13;;;31.72;26.12
70033;BME280;57374;56.164;15.594;2023-07-24T10:29:36;101029.54;;;31.77;25.89
70033;BME280;57374;56.164;15.594;2023-07-24T10:32:01;101023.73;;;31.73;27.07
70033;BME280;57374;56.164;15.594;2023-07-24T10:34:36;101026.22;;;31.88;26.51
70033;BME280;57374;56.164;15.594;2023-07-24T10:39:17;101011.90;;;31.94;27.50
70033;BME280;57374;56.164;15.594;2023-07-24T10:41:41;101015.13;;;31.54;26.66
70033;BME280;57374;56.164;15.594;2023-07-24T10:44:07;101016.73;;;31.48;26.53
70033;BME280;57374;56.164;15.594;2023-07-24T10:46:36;101013.77;;;31.27;26.87
70033;BME280;57374;56.164;15.594;2023-07-24T10:49:01;101016.89;;;31.71;27.49
70033;BME280;57374;56.164;15.594;2023-07-24T10:51:22;101010.88;;;31.97;26.59
70033;BME280;57374;56.164;15.594;2023-07-24T10:53:48;101011.42;;;31.91;26.39
70033;BME280;57374;56.164;15.594;2023-07-24T10:56:12;101004.58;;;31.91;27.97
70033;BME280;57374;56.164;15.594;2023-07-24T10:58:37;101001.74;;;31.19;28.94
70033;BME280;57374;56.164;15.594;2023-07-24T11:01:04;100998.42;;;31.14;28.24
70033;BME280;57374;56.164;15.594;2023-07-24T11:03:27;100997.46;;;31.10;27.17
70033;BME280;57374;56.164;15.594;2023-07-24T11:05:52;100993.90;;;30.84;26.81
70033;BME280;57374;56.164;15.594;2023-07-24T11:08:19;100990.97;;;30.24;26.86
70033;BME280;57374;56.164;15.594;2023-07-24T11:10:45;100988.31;;;30.45;26.06
70033;BME280;57374;56.164;15.594;2023-07-24T11:13:10;100981.55;;;30.49;25.62
70033;BME280;57374;56.164;15.594;2023-07-24T11:15:33;100979.79;;;30.35;25.33
70033;BME280;57374;56.164;15.594;2023-07-24T11:18:00;100979.82;;;30.30;31.79
70033;BME280;57374;56.164;15.594;2023-07-24T11:20:23;100974.92;;;29.60;26.88
70033;BME280;57374;56.164;15.594;2023-07-24T11:22:48;100974.97;;;30.21;26.36
70033;BME280;57374;56.164;15.594;2023-07-24T11:25:13;100971.53;;;30.50;25.65
70033;BME280;57374;56.164;15.594;2023-07-24T11:27:40;100969.36;;;30.04;24.93
70033;BME280;57374;56.164;15.594;2023-07-24T11:30:04;100967.19;;;29.85;24.69
70033;BME280;57374;56.164;15.594;2023-07-24T11:32:28;100964.81;;;30.12;24.10
70033;BME280;57374;56.164;15.594;2023-07-24T11:34:54;100961.72;;;29.73;25.04
70033;BME280;57374;56.164;15.594;2023-07-24T11:37:19;100960.80;;;29.44;24.90
70033;BME280;57374;56.164;15.594;2023-07-24T11:42:09;100963.00;;;29.69;24.50
70033;BME280;57374;56.164;15.594;2023-07-24T11:44:34;100960.82;;;29.92;24.17
70033;BME280;57374;56.164;15.594;2023-07-24T11:47:03;100956.52;;;29.82;24.16
70033;BME280;57374;56.164;15.594;2023-07-24T11:49:24;100955.39;;;29.42;24.42
70033;BME280;57374;56.164;15.594;2023-07-24T11:51:49;100950.27;;;29.53;24.13
70033;BME280;57374;56.164;15.594;2023-07-24T11:54:14;100950.32;;;29.56;24.01
70033;BME280;57374;56.164;15.594;2023-07-24T11:56:39;100952.49;;;29.74;23.76
70033;BME280;57374;56.164;15.594;2023-07-24T11:59:10;100948.93;;;29.04;24.61
70033;BME280;57374;56.164;15.594;2023-07-24T12:01:29;100945.86;;;29.07;24.52
70033;BME280;57374;56.164;15.594;2023-07-24T12:03:54;100941.74;;;29.14;24.35
70033;BME280;57374;56.164;15.594;2023-07-24T12:06:19;100945.84;;;29.09;24.19
70033;BME280;57374;56.164;15.594;2023-07-24T12:08:44;100943.08;;;29.02;24.18
70033;BME280;57374;56.164;15.594;2023-07-24T12:11:16;100942.80;;;29.18;23.85
70033;BME280;57374;56.164;15.594;2023-07-24T12:13:35;100946.36;;;29.51;23.27
70033;BME280;57374;56.164;15.594;2023-07-24T12:16:00;100951.71;;;29.46;23.24
70033;BME280;57374;56.164;15.594;2023-07-24T12:18:25;100951.60;;;29.16;23.57
70033;BME280;57374;56.164;15.594;2023-07-24T12:20:50;100948.15;;;28.95;23.81
70033;BME280;57374;56.164;15.594;2023-07-24T12:23:15;100952.86;;;28.96;23.74
70033;BME280;57374;56.164;15.594;2023-07-24T12:25:40;100951.45;;;28.86;23.82
70033;BME280;57374;56.164;15.594;2023-07-24T12:28:05;100948.99;;;28.87;23.78
70033;BME280;57374;56.164;15.594;2023-07-24T12:30:30;100949.31;;;28.85;23.78
70033;BME280;57374;56.164;15.594;2023-07-24T12:32:55;100950.66;;;28.91;23.66
70033;BME280;57374;56.164;15.594;2023-07-24T12:35:20;100951.55;;;28.82;23.69
70033;BME280;57374;56.164;15.594;2023-07-24T12:37:46;100949.18;;;28.70;23.79
70033;BME280;57374;56.164;15.594;2023-07-24T12:40:11;100951.61;;;28.76;23.70
70033;BME280;57374;56.164;15.594;2023-07-24T12:42:36;100949.74;;;29.18;23.12
70033;BME280;57374;56.164;15.594;2023-07-24T12:45:01;100948.26;;;29.10;23.18
70033;BME280;57374;56.164;15.594;2023-07-24T12:47:26;100950.40;;;28.80;23.54
70033;BME280;57374;56.164;15.594;2023-07-24T12:49:51;100948.13;;;28.73;23.62
70033;BME280;57374;56.164;15.594;2023-07-24T12:52:16;100949.33;;;28.75;23.63
70033;BME280;57374;56.164;15.594;2023-07-24T12:54:41;100945.81;;;28.70;23.73
70033;BME280;57374;56.164;15.594;2023-07-24T12:57:06;100945.26;;;28.81;23.57
70033;BME280;57374;56.164;15.594;2023-07-24T12:59:31;100943.32;;;28.75;23.66
70033;BME280;57374;56.164;15.594;2023-07-24T13:01:56;100944.46;;;28.82;23.58
70033;BME280;57374;56.164;15.594;2023-07-24T13:04:22;100944.10;;;28.60;23.80
70033;BME280;57374;56.164;15.594;2023-07-24T13:06:46;100937.37;;;28.63;23.75
70033;BME280;57374;56.164;15.594;2023-07-24T13:09:12;100934.65;;;28.75;23.58
70033;BME280;57374;56.164;15.594;2023-07-24T13:11:37;100933.23;;;29.09;23.22
70033;BME280;57374;56.164;15.594;2023-07-24T13:14:02;100937.33;;;28.80;23.67
70033;BME280;57374;56.164;15.594;2023-07-24T13:16:27;100934.29;;;28.73;23.76